createdAt,value
2018-08-22T00:00:16.895Z,13.75
2018-08-22T00:02:45.237Z,13.47
2018-08-22T00:05:13.517Z,13.39
2018-08-22T00:07:41.930Z,13.45
2018-08-22T00:10:10.303Z,13.51
2018-08-22T00:12:38.622Z,13.59
2018-08-22T00:15:06.921Z,13.48
2018-08-22T00:17:35.234Z,13.68
2018-08-22T00:20:03.540Z,13.82
2018-08-22T00:22:31.950Z,13.88
2018-08-22T00:25:00.231Z,13.99
2018-08-22T00:27:28.731Z,14.10
2018-08-22T00:29:57.007Z,13.66
2018-08-22T00:32:25.286Z,13.63
2018-08-22T00:34:53.614Z,13.86
2018-08-22T00:37:22.177Z,13.83
2018-08-22T00:39:50.526Z,13.44
2018-08-22T00:42:18.807Z,13.34
2018-08-22T00:44:47.335Z,13.31
2018-08-22T00:47:15.686Z,13.32
2018-08-22T00:49:44.010Z,13.55
2018-08-22T00:52:12.306Z,13.30
2018-08-22T00:54:40.741Z,13.29
2018-08-22T00:57:09.082Z,13.56
2018-08-22T00:59:37.499Z,13.66
2018-08-22T01:02:05.796Z,13.62
2018-08-22T01:04:34.107Z,13.87
2018-08-22T01:07:02.427Z,13.81
2018-08-22T01:09:30.814Z,13.58
2018-08-22T01:11:59.098Z,13.87
2018-08-22T01:14:27.423Z,13.80
2018-08-22T01:16:55.778Z,13.95
2018-08-22T01:19:24.059Z,14.07
2018-08-22T01:21:52.405Z,13.92
2018-08-22T01:24:20.731Z,13.65
2018-08-22T01:26:49.071Z,13.49
2018-08-22T01:29:17.408Z,13.50
2018-08-22T01:31:45.709Z,13.68
2018-08-22T01:34:14.038Z,13.75
2018-08-22T01:36:42.494Z,13.67
2018-08-22T01:39:10.777Z,13.63
2018-08-22T01:41:39.103Z,13.71
2018-08-22T01:44:07.378Z,13.59
2018-08-22T01:46:35.821Z,13.56
2018-08-22T01:49:04.102Z,13.62
2018-08-22T01:51:32.439Z,13.70
2018-08-22T01:54:00.751Z,13.64
2018-08-22T01:56:29.074Z,13.61
2018-08-22T01:58:57.652Z,13.64
2018-08-22T02:01:25.972Z,13.49
2018-08-22T02:03:54.486Z,13.77
2018-08-22T02:06:22.815Z,13.66
2018-08-22T02:08:51.105Z,13.59
2018-08-22T02:11:19.382Z,13.38
2018-08-22T02:13:47.715Z,13.22
2018-08-22T02:16:16.014Z,13.12
2018-08-22T02:18:44.371Z,13.38
2018-08-22T02:21:12.691Z,13.27
2018-08-22T02:23:40.969Z,13.28
2018-08-22T02:26:09.522Z,13.48
2018-08-22T02:28:37.856Z,13.25
2018-08-22T02:31:06.170Z,13.42
2018-08-22T02:33:34.523Z,13.24
2018-08-22T02:36:02.916Z,13.30
2018-08-22T02:38:31.659Z,13.20
2018-08-22T02:40:59.967Z,13.02
2018-08-22T02:43:28.254Z,12.87
2018-08-22T02:45:56.608Z,12.91
2018-08-22T02:48:24.957Z,13.05
2018-08-22T02:50:53.233Z,13.05
2018-08-22T02:53:21.512Z,13.03
2018-08-22T02:55:49.805Z,13.03
2018-08-22T02:58:18.235Z,13.06
2018-08-22T03:00:46.543Z,13.04
2018-08-22T03:03:14.900Z,12.77
2018-08-22T03:05:43.344Z,12.69
2018-08-22T03:08:11.676Z,12.62
2018-08-22T03:10:40.055Z,12.58
2018-08-22T03:13:08.349Z,12.71
2018-08-22T03:15:36.668Z,12.78
2018-08-22T03:18:05.017Z,12.55
2018-08-22T03:20:33.273Z,12.53
2018-08-22T03:23:01.587Z,12.66
2018-08-22T03:25:29.929Z,12.75
2018-08-22T03:27:58.246Z,12.92
2018-08-22T03:30:45.617Z,12.64
2018-08-22T03:33:24.926Z,12.65
2018-08-22T03:36:03.216Z,12.85
2018-08-22T03:38:31.578Z,12.91
2018-08-22T03:40:59.997Z,12.51
2018-08-22T03:43:28.326Z,12.44
2018-08-22T03:45:56.672Z,12.33
2018-08-22T03:48:25.008Z,12.21
2018-08-22T03:50:53.377Z,12.36
2018-08-22T03:53:22.026Z,12.41
2018-08-22T03:55:50.370Z,12.33
2018-08-22T03:58:18.715Z,11.97
2018-08-22T04:00:47.039Z,11.96
2018-08-22T04:03:15.378Z,12.28
2018-08-22T04:05:43.884Z,12.49
2018-08-22T04:08:12.185Z,12.45
2018-08-22T04:10:40.501Z,12.53
2018-08-22T04:13:08.788Z,12.17
2018-08-22T04:15:37.236Z,12.03
2018-08-22T04:18:05.699Z,11.94
2018-08-22T04:20:34.246Z,12.27
2018-08-22T04:23:02.632Z,12.50
2018-08-22T04:25:30.961Z,12.54
2018-08-22T04:27:59.256Z,12.17
2018-08-22T04:30:28.324Z,12.09
2018-08-22T04:32:56.641Z,12.10
2018-08-22T04:35:24.983Z,12.29
2018-08-22T04:37:53.362Z,12.02
2018-08-22T04:40:21.843Z,12.08
2018-08-22T04:42:50.223Z,12.53
2018-08-22T04:45:18.621Z,12.60
2018-08-22T04:47:46.916Z,12.56
2018-08-22T04:50:15.185Z,12.38
2018-08-22T04:52:43.523Z,12.52
2018-08-22T04:55:11.817Z,12.84
2018-08-22T04:57:40.269Z,12.98
2018-08-22T05:00:10.183Z,13.03
2018-08-22T05:02:38.974Z,12.73
2018-08-22T05:05:07.695Z,12.56
2018-08-22T05:07:36.046Z,12.68
2018-08-22T05:10:04.449Z,13.02
2018-08-22T05:12:33.082Z,13.10
2018-08-22T05:15:01.409Z,13.16
2018-08-22T05:17:29.927Z,13.31
2018-08-22T05:19:58.270Z,13.34
2018-08-22T05:22:26.634Z,13.49
2018-08-22T05:24:55.116Z,13.62
2018-08-22T05:27:23.523Z,13.65
2018-08-22T05:29:52.237Z,13.66
2018-08-22T05:32:20.549Z,13.62
2018-08-22T05:34:48.832Z,13.83
2018-08-22T05:37:17.208Z,14.07
2018-08-22T05:39:45.486Z,14.03
2018-08-22T05:42:13.786Z,14.07
2018-08-22T05:44:42.046Z,14.26
2018-08-22T05:47:10.350Z,14.35
2018-08-22T05:49:38.779Z,14.39
2018-08-22T05:52:07.087Z,14.43
2018-08-22T05:54:35.402Z,14.56
2018-08-22T05:57:03.694Z,14.71
2018-08-22T05:59:31.962Z,14.84
2018-08-22T06:02:00.752Z,14.88
2018-08-22T06:04:29.080Z,15.13
2018-08-22T06:06:57.508Z,15.33
2018-08-22T06:09:25.834Z,15.48
2018-08-22T06:11:54.372Z,15.63
2018-08-22T06:14:22.903Z,15.69
2018-08-22T06:16:51.218Z,15.74
2018-08-22T06:19:19.528Z,15.80
2018-08-22T06:21:47.856Z,15.93
2018-08-22T06:24:16.509Z,15.97
2018-08-22T06:26:44.844Z,16.04
2018-08-22T06:29:13.453Z,16.09
2018-08-22T06:31:41.910Z,16.22
2018-08-22T06:34:10.271Z,16.27
2018-08-22T06:36:38.585Z,16.35
2018-08-22T06:39:08.750Z,16.40
2018-08-22T06:41:37.354Z,16.48
2018-08-22T06:44:05.842Z,16.59
2018-08-22T06:46:34.277Z,16.78
2018-08-22T06:49:02.621Z,16.77
2018-08-22T06:51:31.026Z,16.77
2018-08-22T06:53:59.302Z,16.83
2018-08-22T06:56:27.699Z,16.97
2018-08-22T06:58:56.053Z,17.03
2018-08-22T07:01:24.340Z,17.11
2018-08-22T07:03:52.668Z,17.21
2018-08-22T07:06:21.136Z,17.31
2018-08-22T07:08:49.633Z,17.48
2018-08-22T07:11:17.945Z,17.65
2018-08-22T07:13:46.460Z,17.63
2018-08-22T07:16:14.903Z,17.74
2018-08-22T07:18:43.345Z,17.81
2018-08-22T07:21:11.648Z,17.87
2018-08-22T07:23:39.940Z,18.00
2018-08-22T07:26:08.211Z,18.08
2018-08-22T07:28:36.611Z,18.24
2018-08-22T07:31:05.225Z,18.38
2018-08-22T07:33:33.540Z,18.42
2018-08-22T07:36:01.837Z,18.57
2018-08-22T07:38:30.122Z,18.79
2018-08-22T07:40:58.379Z,18.83
2018-08-22T07:43:26.681Z,18.87
2018-08-22T07:45:57.822Z,18.93
2018-08-22T07:48:26.127Z,19.06
2018-08-22T07:50:54.579Z,19.12
2018-08-22T07:53:22.891Z,19.19
2018-08-22T07:55:51.294Z,19.26
2018-08-22T07:58:19.622Z,19.44
2018-08-22T08:00:47.866Z,19.55
2018-08-22T08:03:16.274Z,19.57
2018-08-22T08:05:44.660Z,19.77
2018-08-22T08:08:12.960Z,19.78
2018-08-22T08:10:41.410Z,19.88
2018-08-22T08:13:15.399Z,19.91
2018-08-22T08:15:43.678Z,19.98
2018-08-22T08:18:11.981Z,19.97
2018-08-22T08:20:40.450Z,20.04
2018-08-22T08:23:08.726Z,20.27
2018-08-22T08:25:37.059Z,20.28
2018-08-22T08:28:05.553Z,20.45
2018-08-22T08:30:33.952Z,20.47
2018-08-22T08:33:02.183Z,20.57
2018-08-22T08:35:30.584Z,20.76
2018-08-22T08:37:58.865Z,20.81
2018-08-22T08:40:27.146Z,20.84
2018-08-22T08:42:55.400Z,20.99
2018-08-22T08:45:23.788Z,21.08
2018-08-22T08:47:52.147Z,21.15
2018-08-22T08:50:20.511Z,21.12
2018-08-22T08:52:48.774Z,21.28
2018-08-22T08:55:17.085Z,21.43
2018-08-22T08:57:45.390Z,21.53
2018-08-22T09:00:13.752Z,21.58
2018-08-22T09:02:42.108Z,21.73
2018-08-22T09:05:10.758Z,21.71
2018-08-22T09:07:39.083Z,21.85
2018-08-22T09:10:07.487Z,22.06
2018-08-22T09:12:37.723Z,22.17
2018-08-22T09:15:07.159Z,22.17
2018-08-22T09:17:35.667Z,22.30
2018-08-22T09:20:04.318Z,22.40
2018-08-22T09:22:33.292Z,22.62
2018-08-22T09:25:01.680Z,22.68
2018-08-22T09:27:30.090Z,22.89
2018-08-22T09:29:58.885Z,22.87
2018-08-22T09:32:27.207Z,22.96
2018-08-22T09:34:55.646Z,22.99
2018-08-22T09:37:24.090Z,23.07
2018-08-22T09:39:52.969Z,23.18
2018-08-22T09:42:21.385Z,23.26
2018-08-22T09:44:49.856Z,23.36
2018-08-22T09:47:18.123Z,23.43
2018-08-22T09:49:46.476Z,23.47
2018-08-22T09:52:14.881Z,23.49
2018-08-22T09:54:55.029Z,23.59
2018-08-22T09:57:24.822Z,23.61
2018-08-22T09:59:53.345Z,23.80
2018-08-22T10:02:21.814Z,23.82
2018-08-22T10:04:50.421Z,23.69
2018-08-22T10:07:21.851Z,23.98
2018-08-22T10:09:50.379Z,24.13
2018-08-22T10:12:18.725Z,24.27
2018-08-22T10:14:47.221Z,24.31
2018-08-22T10:17:15.585Z,24.41
2018-08-22T10:19:43.980Z,24.57
2018-08-22T10:22:12.304Z,24.39
2018-08-22T10:24:40.631Z,24.39
2018-08-22T10:27:09.036Z,24.43
2018-08-22T10:29:37.226Z,24.55
2018-08-22T10:32:05.514Z,24.73
2018-08-22T10:34:34.167Z,24.82
2018-08-22T10:37:02.495Z,24.87
2018-08-22T10:39:30.868Z,24.72
2018-08-22T10:41:59.290Z,24.76
2018-08-22T10:44:27.611Z,25.08
2018-08-22T10:46:55.922Z,25.26
2018-08-22T10:49:24.325Z,25.17
2018-08-22T10:51:52.634Z,25.20
2018-08-22T10:54:21.024Z,25.42
2018-08-22T10:56:49.326Z,25.56
2018-08-22T10:59:17.586Z,25.65
2018-08-22T11:01:45.874Z,25.40
2018-08-22T11:04:14.379Z,25.58
2018-08-22T11:06:42.686Z,25.64
2018-08-22T11:09:11.732Z,25.80
2018-08-22T11:11:40.096Z,25.81
2018-08-22T11:14:08.708Z,25.86
2018-08-22T11:16:37.903Z,25.85
2018-08-22T11:19:06.329Z,25.95
2018-08-22T11:21:45.939Z,26.05
2018-08-22T11:24:26.082Z,25.92
2018-08-22T11:27:05.715Z,25.95
2018-08-22T11:29:45.335Z,26.19
2018-08-22T11:32:24.894Z,26.13
2018-08-22T11:34:52.683Z,26.07
2018-08-22T11:37:20.980Z,26.11
2018-08-22T11:39:50.542Z,26.25
2018-08-22T11:42:19.047Z,26.61
2018-08-22T11:44:47.302Z,26.90
2018-08-22T11:47:15.611Z,26.97
2018-08-22T11:49:43.973Z,26.77
2018-08-22T11:52:12.251Z,26.76
2018-08-22T11:54:40.523Z,26.70
2018-08-22T11:57:09.001Z,26.82
2018-08-22T11:59:37.278Z,26.97
2018-08-22T12:02:05.719Z,26.76
2018-08-22T12:04:34.002Z,27.10
2018-08-22T12:07:02.306Z,27.52
2018-08-22T12:09:30.697Z,27.18
2018-08-22T12:11:59.118Z,27.30
2018-08-22T12:14:27.452Z,27.56
2018-08-22T12:16:55.783Z,27.70
2018-08-22T12:19:24.058Z,27.94
2018-08-22T12:21:52.382Z,28.10
2018-08-22T12:24:20.675Z,28.05
2018-08-22T12:26:49.098Z,28.02
2018-08-22T12:29:17.350Z,28.05
2018-08-22T12:31:45.775Z,27.99
2018-08-22T12:34:14.405Z,28.09
2018-08-22T12:36:42.876Z,28.09
2018-08-22T12:39:11.257Z,27.80
2018-08-22T12:41:39.546Z,27.59
2018-08-22T12:44:07.815Z,27.59
2018-08-22T12:46:36.087Z,27.76
2018-08-22T12:49:04.660Z,27.82
2018-08-22T12:51:33.014Z,27.75
2018-08-22T12:54:01.630Z,27.70
2018-08-22T12:56:30.135Z,27.61
2018-08-22T12:58:58.423Z,27.60
2018-08-22T13:01:26.724Z,27.98
2018-08-22T13:03:55.028Z,27.78
2018-08-22T13:06:23.318Z,27.72
2018-08-22T13:08:52.218Z,27.62
2018-08-22T13:11:20.494Z,27.84
2018-08-22T13:13:48.853Z,28.15
2018-08-22T13:16:17.303Z,28.39
2018-08-22T13:18:45.803Z,28.44
2018-08-22T13:21:14.088Z,28.60
2018-08-22T13:23:42.607Z,28.47
2018-08-22T13:26:10.902Z,28.46
2018-08-22T13:28:39.273Z,28.62
2018-08-22T13:31:07.856Z,28.79
2018-08-22T13:33:36.811Z,28.54
2018-08-22T13:36:05.289Z,28.35
2018-08-22T13:38:33.547Z,28.35
2018-08-22T13:41:01.863Z,28.23
2018-08-22T13:43:30.435Z,28.10
2018-08-22T13:45:58.782Z,28.38
2018-08-22T13:48:27.266Z,28.59
2018-08-22T13:50:55.793Z,28.75
2018-08-22T13:53:24.013Z,28.51
2018-08-22T13:55:52.605Z,28.37
2018-08-22T13:58:21.290Z,28.54
2018-08-22T14:00:49.616Z,28.61
2018-08-22T14:03:18.301Z,28.45
2018-08-22T14:05:46.999Z,28.75
2018-08-22T14:08:15.413Z,28.95
2018-08-22T14:10:43.864Z,28.79
2018-08-22T14:13:12.373Z,28.61
2018-08-22T14:15:40.843Z,28.55
2018-08-22T14:18:09.298Z,28.54
2018-08-22T14:20:37.598Z,29.25
2018-08-22T14:23:06.654Z,28.90
2018-08-22T14:25:35.130Z,28.78
2018-08-22T14:28:03.646Z,28.94
2018-08-22T14:30:32.039Z,29.11
2018-08-22T14:33:00.372Z,28.99
2018-08-22T14:35:28.650Z,29.13
2018-08-22T14:37:56.957Z,29.07
2018-08-22T14:40:25.478Z,28.97
2018-08-22T14:42:55.330Z,29.09
2018-08-22T14:45:23.594Z,29.00
2018-08-22T14:47:51.854Z,28.86
2018-08-22T14:50:20.138Z,29.05
2018-08-22T14:52:48.395Z,28.62
2018-08-22T14:55:17.019Z,28.47
2018-08-22T14:57:45.307Z,28.44
2018-08-22T15:00:13.611Z,28.57
2018-08-22T15:02:42.248Z,28.72
2018-08-22T15:05:10.400Z,28.63
2018-08-22T15:07:38.865Z,28.60
2018-08-22T15:10:07.904Z,28.48
2018-08-22T15:12:36.226Z,28.44
2018-08-22T15:15:04.750Z,28.27
2018-08-22T15:17:33.165Z,28.39
2018-08-22T15:20:01.472Z,28.37
2018-08-22T15:22:29.811Z,28.92
2018-08-22T15:24:58.057Z,28.65
2018-08-22T15:27:26.470Z,28.90
2018-08-22T15:29:54.756Z,28.65
2018-08-22T15:32:23.107Z,28.64
2018-08-22T15:34:53.974Z,28.71
2018-08-22T15:37:22.930Z,28.64
2018-08-22T15:39:51.238Z,28.53
2018-08-22T15:42:19.762Z,28.51
2018-08-22T15:44:48.107Z,28.34
2018-08-22T15:47:16.473Z,28.32
2018-08-22T15:49:45.774Z,28.51
2018-08-22T15:52:14.283Z,28.69
2018-08-22T15:54:42.588Z,28.72
2018-08-22T15:57:10.895Z,28.69
2018-08-22T15:59:39.381Z,28.58
2018-08-22T16:02:07.696Z,28.34
2018-08-22T16:05:00.576Z,28.27
2018-08-22T16:07:28.905Z,28.28
2018-08-22T16:09:57.263Z,28.22
2018-08-22T16:12:25.588Z,28.29
2018-08-22T16:14:53.925Z,28.29
2018-08-22T16:17:22.355Z,28.41
2018-08-22T16:19:50.778Z,28.47
2018-08-22T16:22:19.059Z,28.45
2018-08-22T16:24:47.389Z,28.38
2018-08-22T16:27:15.909Z,28.40
2018-08-22T16:29:44.283Z,28.26
2018-08-22T16:32:12.623Z,28.11
2018-08-22T16:34:40.945Z,28.15
2018-08-22T16:37:09.672Z,28.23
2018-08-22T16:39:42.654Z,28.15
2018-08-22T16:42:11.334Z,27.98
2018-08-22T16:44:40.023Z,27.95
2018-08-22T16:47:08.427Z,27.96
2018-08-22T16:49:37.039Z,27.96
2018-08-22T16:52:05.556Z,27.91
2018-08-22T16:54:33.944Z,27.97
2018-08-22T16:57:02.749Z,27.84
2018-08-22T16:59:31.112Z,27.86
2018-08-22T17:01:59.610Z,27.86
2018-08-22T17:04:27.984Z,27.92
2018-08-22T17:06:58.256Z,27.92
2018-08-22T17:09:27.550Z,27.56
2018-08-22T17:11:55.820Z,27.36
2018-08-22T17:14:24.188Z,27.10
2018-08-22T17:16:52.471Z,26.98
2018-08-22T17:19:20.808Z,26.89
2018-08-22T17:21:49.099Z,26.80
2018-08-22T17:24:17.418Z,26.79
2018-08-22T17:26:45.676Z,26.71
2018-08-22T17:29:14.332Z,26.61
2018-08-22T17:31:45.016Z,26.54
2018-08-22T17:34:13.503Z,26.42
2018-08-22T17:36:41.955Z,26.33
2018-08-22T17:39:10.427Z,26.21
2018-08-22T17:41:38.724Z,26.22
2018-08-22T17:44:09.100Z,26.20
2018-08-22T17:46:40.537Z,25.93
2018-08-22T17:49:08.923Z,25.73
2018-08-22T17:52:11.554Z,25.60
2018-08-22T17:54:40.071Z,25.35
2018-08-22T17:57:14.874Z,25.19
2018-08-22T17:59:44.075Z,25.05
2018-08-22T18:02:34.971Z,24.86
2018-08-22T18:05:04.295Z,24.63
2018-08-22T18:07:32.773Z,24.52
2018-08-22T18:10:04.432Z,24.31
2018-08-22T18:12:37.558Z,24.18
2018-08-22T18:15:05.914Z,24.06
2018-08-22T18:17:34.670Z,23.85
2018-08-22T18:20:02.955Z,23.76
2018-08-22T18:22:35.380Z,23.77
2018-08-22T18:25:03.751Z,23.50
2018-08-22T18:27:32.327Z,23.24
2018-08-22T18:30:00.634Z,23.16
2018-08-22T18:32:28.970Z,23.15
2018-08-22T18:35:08.616Z,23.09
2018-08-22T18:37:36.985Z,22.97
2018-08-22T18:40:24.162Z,22.84
2018-08-22T18:42:55.658Z,22.69
2018-08-22T18:46:33.196Z,22.60
2018-08-22T18:49:02.595Z,22.40
2018-08-22T18:51:30.953Z,22.32
2018-08-22T18:53:59.600Z,22.32
2018-08-22T18:56:28.238Z,22.19
2018-08-22T18:58:56.902Z,22.30
2018-08-22T19:01:25.574Z,22.02
2018-08-22T19:03:56.207Z,21.96
2018-08-22T19:06:24.542Z,21.85
2018-08-22T19:08:52.795Z,21.71
2018-08-22T19:11:21.066Z,21.61
2018-08-22T19:13:49.406Z,21.48
2018-08-22T19:16:17.689Z,21.43
2018-08-22T19:18:45.985Z,21.55
2018-08-22T19:21:14.983Z,21.41
2018-08-22T19:23:44.980Z,21.43
2018-08-22T19:26:13.826Z,21.36
2018-08-22T19:28:54.324Z,21.26
2018-08-22T19:31:22.608Z,21.26
2018-08-22T19:33:51.101Z,21.20
2018-08-22T19:36:19.859Z,20.92
2018-08-22T19:38:48.151Z,20.76
2018-08-22T19:41:23.772Z,20.72
2018-08-22T19:43:52.399Z,20.82
2018-08-22T19:46:20.904Z,20.73
2018-08-22T19:48:49.265Z,20.58
2018-08-22T19:51:17.870Z,20.49
2018-08-22T19:54:05.318Z,20.54
2018-08-22T19:56:34.555Z,20.43
2018-08-22T19:59:03.603Z,20.49
2018-08-22T20:01:33.595Z,20.45
2018-08-22T20:04:01.974Z,20.37
2018-08-22T20:06:30.699Z,20.10
2018-08-22T20:09:00.036Z,20.10
2018-08-22T20:11:28.627Z,20.12
2018-08-22T20:14:02.094Z,20.18
2018-08-22T20:16:30.458Z,20.00
2018-08-22T20:19:00.869Z,19.97
2018-08-22T20:21:30.938Z,19.91
2018-08-22T20:23:59.828Z,19.80
2018-08-22T20:26:28.707Z,19.80
2018-08-22T20:29:01.771Z,19.77
2018-08-22T20:31:30.342Z,19.80
2018-08-22T20:34:04.514Z,19.82
2018-08-22T20:36:33.028Z,19.82
2018-08-22T20:39:05.894Z,19.68
2018-08-22T20:41:34.677Z,19.71
2018-08-22T20:44:03.433Z,19.60
2018-08-22T20:46:32.146Z,19.34
2018-08-22T20:49:01.001Z,19.40
2018-08-22T20:51:30.633Z,19.01
2018-08-22T20:54:04.532Z,18.80
2018-08-22T20:56:32.898Z,19.10
2018-08-22T20:59:01.315Z,19.36
2018-08-22T21:01:29.771Z,19.42
2018-08-22T21:03:58.098Z,19.37
2018-08-22T21:06:26.559Z,19.38
2018-08-22T21:08:55.039Z,19.14
2018-08-22T21:11:23.408Z,18.89
2018-08-22T21:13:51.897Z,18.96
2018-08-22T21:16:20.449Z,19.16
2018-08-22T21:18:48.732Z,19.06
2018-08-22T21:21:31.494Z,19.27
2018-08-22T21:24:05.954Z,18.87
2018-08-22T21:26:59.990Z,18.93
2018-08-22T21:29:39.995Z,18.87
2018-08-22T21:34:54.508Z,18.73
2018-08-22T21:37:28.879Z,18.60
2018-08-22T21:39:59.451Z,18.59
2018-08-22T21:42:38.292Z,18.62
2018-08-22T21:45:17.354Z,18.79
2018-08-22T21:47:53.326Z,18.86
2018-08-22T21:50:42.738Z,18.83
2018-08-22T21:53:18.787Z,18.47
2018-08-22T21:55:52.228Z,18.36
2018-08-22T21:58:21.600Z,18.40
2018-08-22T22:00:53.272Z,18.27
2018-08-22T22:03:29.429Z,18.09
2018-08-22T22:06:02.708Z,18.11
2018-08-22T22:08:38.764Z,18.17
2018-08-22T22:11:25.995Z,18.24
2018-08-22T22:14:08.773Z,18.19
2018-08-22T22:19:18.869Z,17.84
2018-08-22T22:21:52.428Z,17.96
2018-08-22T22:24:29.605Z,18.08
2018-08-22T22:27:11.772Z,18.09
2018-08-22T22:29:49.389Z,17.90
2018-08-22T22:32:18.762Z,17.98
2018-08-22T22:34:54.524Z,17.74
2018-08-22T22:40:37.601Z,17.62
2018-08-22T22:43:17.867Z,17.62
2018-08-22T22:48:54.145Z,17.76
2018-08-22T22:51:23.653Z,17.80
2018-08-22T22:53:55.720Z,17.76
2018-08-22T22:56:27.625Z,17.68
2018-08-22T22:58:57.006Z,17.53
2018-08-22T23:01:26.176Z,17.30
2018-08-22T23:04:08.849Z,17.32
2018-08-22T23:06:46.971Z,17.39
2018-08-22T23:09:20.227Z,17.57
2018-08-22T23:12:05.814Z,17.51
2018-08-22T23:14:42.349Z,17.38
2018-08-22T23:17:15.355Z,17.26
2018-08-22T23:19:44.267Z,17.13
2018-08-22T23:22:19.753Z,17.25
2018-08-22T23:24:59.147Z,17.31
2018-08-22T23:27:34.421Z,17.20
2018-08-22T23:33:02.066Z,17.08
2018-08-22T23:35:32.645Z,17.12
2018-08-22T23:38:03.073Z,17.23
2018-08-22T23:40:32.608Z,17.36
2018-08-22T23:43:00.960Z,17.10
2018-08-22T23:45:29.461Z,16.81
2018-08-22T23:47:57.809Z,16.86
2018-08-22T23:50:38.570Z,16.96
2018-08-22T23:53:06.875Z,17.23
2018-08-22T23:55:35.173Z,17.14
2018-08-22T23:58:03.491Z,17.07
